createdAt,value
2019-02-14T00:22:15.470Z,53.23
2019-02-14T00:32:18.444Z,50.50
2019-02-14T00:34:48.036Z,49.97
2019-02-14T00:37:17.971Z,49.95
2019-02-14T00:39:47.578Z,49.81
2019-02-14T00:42:17.187Z,49.33
2019-02-14T00:44:46.751Z,49.20
2019-02-14T00:47:16.385Z,49.00
2019-02-14T00:49:45.958Z,48.41
2019-02-14T00:52:15.546Z,48.43
2019-02-14T00:54:45.193Z,48.53
2019-02-14T00:57:14.785Z,48.60
2019-02-14T00:59:44.386Z,48.23
2019-02-14T01:02:14.046Z,47.57
2019-02-14T01:04:43.626Z,47.39
2019-02-14T01:07:13.247Z,47.93
2019-02-14T01:09:42.877Z,47.34
2019-02-14T01:15:02.789Z,48.08
2019-02-14T01:17:32.387Z,47.94
2019-02-14T01:20:01.981Z,48.29
2019-02-14T01:22:31.635Z,48.20
2019-02-14T01:25:01.207Z,48.42
2019-02-14T01:27:30.812Z,49.10
2019-02-14T01:30:00.424Z,48.31
2019-02-14T01:32:29.999Z,48.84
2019-02-14T01:34:59.603Z,48.20
2019-02-14T01:37:29.248Z,49.13
2019-02-14T01:39:58.839Z,48.26
2019-02-14T01:42:28.454Z,48.04
2019-02-14T01:44:58.065Z,48.37
2019-02-14T01:47:27.657Z,48.64
2019-02-14T01:49:57.282Z,49.03
2019-02-14T01:52:26.997Z,48.82
2019-02-14T01:54:56.555Z,48.33
2019-02-14T01:57:26.163Z,48.30
2019-02-14T01:59:55.823Z,48.25
2019-02-14T02:02:25.412Z,48.07
2019-02-14T02:04:54.964Z,48.01
2019-02-14T02:07:24.688Z,48.41
2019-02-14T02:09:54.352Z,47.57
2019-02-14T02:12:24.023Z,47.76
2019-02-14T02:14:53.664Z,47.78
2019-02-14T02:17:23.293Z,47.64
2019-02-14T02:19:52.872Z,47.59
2019-02-14T02:22:22.513Z,47.24
2019-02-14T02:24:52.120Z,46.48
2019-02-14T02:27:21.706Z,46.63
2019-02-14T02:29:51.391Z,47.06
2019-02-14T02:32:20.957Z,46.77
2019-02-14T02:34:50.581Z,46.88
2019-02-14T02:37:20.228Z,46.53
2019-02-14T02:39:49.813Z,46.46
2019-02-14T02:42:19.383Z,45.57
2019-02-14T02:44:49.138Z,45.21
2019-02-14T02:47:18.695Z,45.47
2019-02-14T02:49:48.262Z,44.69
2019-02-14T02:52:17.913Z,44.82
2019-02-14T02:54:47.467Z,45.02
2019-02-14T02:57:17.035Z,45.74
2019-02-14T02:59:46.691Z,45.82
2019-02-14T03:02:16.253Z,45.91
2019-02-14T03:04:45.831Z,46.45
2019-02-14T03:07:15.506Z,46.19
2019-02-14T03:09:45.092Z,45.56
2019-02-14T03:12:14.695Z,45.48
2019-02-14T03:14:44.302Z,45.51
2019-02-14T03:17:13.904Z,45.71
2019-02-14T03:19:43.472Z,45.00
2019-02-14T03:22:13.110Z,44.65
2019-02-14T03:24:42.675Z,45.29
2019-02-14T03:27:12.260Z,44.57
2019-02-14T03:29:41.889Z,44.58
2019-02-14T03:32:11.474Z,44.48
2019-02-14T03:34:41.049Z,44.36
2019-02-14T03:37:10.657Z,43.63
2019-02-14T03:39:40.243Z,43.44
2019-02-14T03:42:09.849Z,43.77
2019-02-14T03:44:39.506Z,43.67
2019-02-14T03:47:09.096Z,43.01
2019-02-14T03:49:38.691Z,43.33
2019-02-14T03:52:08.350Z,43.31
2019-02-14T03:54:37.941Z,42.91
2019-02-14T03:57:07.487Z,42.70
2019-02-14T03:59:37.136Z,42.25
2019-02-14T04:02:06.736Z,42.54
2019-02-14T04:04:36.310Z,42.44
2019-02-14T04:07:05.953Z,42.36
2019-02-14T04:09:35.520Z,42.07
2019-02-14T04:12:05.127Z,41.72
2019-02-14T04:14:34.804Z,41.92
2019-02-14T04:17:04.432Z,41.47
2019-02-14T04:19:34.011Z,41.26
2019-02-14T04:22:03.651Z,40.64
2019-02-14T04:24:33.244Z,40.74
2019-02-14T04:27:02.821Z,40.10
2019-02-14T04:29:32.456Z,40.44
2019-02-14T04:32:02.054Z,40.20
2019-02-14T04:34:31.648Z,40.12
2019-02-14T04:37:01.269Z,39.92
2019-02-14T04:39:30.881Z,39.67
2019-02-14T04:42:00.441Z,39.73
2019-02-14T04:44:30.082Z,40.28
2019-02-14T04:46:59.680Z,40.15
2019-02-14T04:49:29.333Z,40.36
2019-02-14T04:51:58.966Z,40.15
2019-02-14T04:54:28.532Z,40.29
2019-02-14T04:56:58.114Z,39.74
2019-02-14T04:59:27.790Z,40.15
2019-02-14T05:01:57.377Z,39.82
2019-02-14T05:04:26.963Z,40.17
2019-02-14T05:06:56.596Z,39.87
2019-02-14T05:09:26.206Z,39.80
2019-02-14T05:11:55.783Z,40.22
2019-02-14T05:14:25.423Z,39.88
2019-02-14T05:16:54.974Z,39.69
2019-02-14T05:19:24.614Z,39.16
2019-02-14T05:21:54.253Z,39.35
2019-02-14T05:24:23.845Z,39.52
2019-02-14T05:26:53.433Z,39.81
2019-02-14T05:29:23.067Z,39.28
2019-02-14T05:31:52.697Z,38.76
2019-02-14T05:34:22.279Z,39.47
2019-02-14T05:36:53.803Z,39.52
2019-02-14T05:47:12.632Z,40.14
2019-02-14T05:53:31.937Z,39.82
2019-02-14T05:58:33.942Z,39.38
2019-02-14T06:01:03.740Z,39.40
2019-02-14T06:06:22.098Z,39.42
2019-02-14T06:08:51.714Z,39.74
2019-02-14T06:11:21.307Z,39.72
2019-02-14T06:13:50.957Z,40.26
2019-02-14T06:16:20.531Z,40.54
2019-02-14T06:18:50.110Z,41.05
2019-02-14T06:21:19.715Z,41.49
2019-02-14T06:23:49.327Z,40.35
2019-02-14T06:26:18.968Z,40.71
2019-02-14T06:28:48.636Z,39.59
2019-02-14T06:31:18.250Z,39.77
2019-02-14T06:33:47.874Z,40.35
2019-02-14T06:36:17.624Z,41.10
2019-02-14T06:38:47.697Z,41.18
2019-02-14T06:41:17.359Z,40.87
2019-02-14T06:43:47.003Z,40.06
2019-02-14T06:46:16.592Z,39.91
2019-02-14T06:48:46.186Z,40.53
2019-02-14T06:51:15.854Z,40.21
2019-02-14T06:53:45.441Z,40.41
2019-02-14T06:56:15.019Z,39.89
2019-02-14T06:58:44.678Z,40.04
2019-02-14T07:01:14.249Z,40.05
2019-02-14T07:03:43.855Z,38.96
2019-02-14T07:06:13.532Z,39.34
2019-02-14T07:08:43.122Z,39.12
2019-02-14T07:11:12.701Z,39.35
2019-02-14T07:13:42.357Z,39.15
2019-02-14T07:16:11.996Z,38.99
2019-02-14T07:18:41.565Z,38.83
2019-02-14T07:21:11.200Z,38.18
2019-02-14T07:23:40.842Z,38.87
2019-02-14T07:26:10.431Z,38.41
2019-02-14T07:28:40.084Z,37.92
2019-02-14T07:31:09.709Z,37.22
2019-02-14T07:33:39.288Z,37.25
2019-02-14T07:36:08.958Z,37.26
2019-02-14T07:38:38.601Z,37.83
2019-02-14T07:41:08.197Z,36.88
2019-02-14T07:43:37.947Z,36.90
2019-02-14T07:46:07.567Z,36.92
2019-02-14T07:48:37.174Z,37.57
2019-02-14T07:51:06.852Z,37.27
2019-02-14T07:53:36.458Z,36.77
2019-02-14T07:56:06.061Z,36.70
2019-02-14T07:58:35.722Z,36.71
2019-02-14T08:01:05.549Z,37.14
2019-02-14T08:03:35.271Z,37.08
2019-02-14T08:06:04.949Z,36.73
2019-02-14T08:08:34.593Z,36.85
2019-02-14T08:11:04.290Z,37.60
2019-02-14T08:13:33.958Z,37.00
2019-02-14T08:16:03.561Z,37.26
2019-02-14T08:18:33.165Z,36.71
2019-02-14T08:21:02.850Z,36.90
2019-02-14T08:23:32.460Z,38.20
2019-02-14T08:26:10.422Z,37.36
2019-02-14T08:28:52.751Z,36.84
2019-02-14T08:31:22.342Z,36.19
2019-02-14T08:33:51.913Z,36.12
2019-02-14T08:36:21.524Z,36.97
2019-02-14T08:38:51.162Z,36.46
2019-02-14T08:41:20.751Z,36.28
2019-02-14T08:43:50.429Z,36.48
2019-02-14T08:46:20.030Z,36.54
2019-02-14T08:48:49.654Z,36.41
2019-02-14T08:51:19.307Z,36.78
2019-02-14T08:53:48.969Z,36.67
2019-02-14T08:56:18.569Z,36.52
2019-02-14T08:58:48.219Z,36.07
2019-02-14T09:01:17.828Z,36.25
2019-02-14T09:03:47.466Z,36.35
2019-02-14T09:06:17.107Z,35.66
2019-02-14T09:08:46.720Z,38.28
2019-02-14T09:11:16.399Z,51.56
2019-02-14T09:13:46.064Z,36.52
2019-02-14T09:16:15.657Z,36.05
2019-02-14T09:18:45.235Z,35.81
2019-02-14T09:21:14.862Z,35.99
2019-02-14T09:23:44.457Z,36.45
2019-02-14T09:26:14.060Z,36.76
2019-02-14T09:28:43.732Z,36.53
2019-02-14T09:31:13.321Z,36.82
2019-02-14T09:33:42.927Z,35.41
2019-02-14T09:36:12.558Z,35.46
2019-02-14T09:38:42.117Z,35.38
2019-02-14T09:41:11.727Z,36.06
2019-02-14T09:43:41.305Z,35.76
2019-02-14T09:46:10.916Z,35.75
2019-02-14T09:52:09.436Z,35.38
2019-02-14T09:54:39.079Z,35.39
2019-02-14T09:57:08.740Z,35.73
2019-02-14T09:59:38.412Z,35.78
2019-02-14T10:02:08.044Z,35.61
2019-02-14T10:04:37.638Z,35.75
2019-02-14T10:07:07.280Z,34.89
2019-02-14T10:09:36.860Z,34.38
2019-02-14T10:12:06.512Z,35.02
2019-02-14T10:14:36.094Z,35.49
2019-02-14T10:17:05.690Z,35.32
2019-02-14T10:19:35.349Z,34.83
2019-02-14T10:22:04.963Z,35.05
2019-02-14T10:24:34.678Z,34.77
2019-02-14T10:27:04.310Z,34.80
2019-02-14T10:29:33.994Z,35.31
2019-02-14T10:34:40.522Z,34.24
2019-02-14T10:37:10.142Z,35.02
2019-02-14T10:39:39.725Z,35.36
2019-02-14T10:42:09.386Z,34.50
2019-02-14T10:44:38.980Z,34.77
2019-02-14T10:47:08.564Z,34.83
2019-02-14T10:49:38.202Z,35.19
2019-02-14T10:52:08.205Z,34.22
2019-02-14T10:54:37.798Z,34.62
2019-02-14T10:57:07.448Z,33.68
2019-02-14T10:59:37.049Z,34.69
2019-02-14T11:02:27.039Z,34.14
2019-02-14T11:04:56.612Z,34.31
2019-02-14T11:07:26.199Z,34.09
2019-02-14T11:09:55.850Z,33.68
2019-02-14T11:12:25.424Z,33.75
2019-02-14T11:14:54.996Z,33.15
2019-02-14T11:17:24.636Z,33.44
2019-02-14T11:19:54.265Z,32.86
2019-02-14T11:22:23.869Z,32.48
2019-02-14T11:24:53.524Z,33.09
2019-02-14T11:27:23.132Z,32.64
2019-02-14T11:29:52.715Z,32.79
2019-02-14T11:32:22.360Z,32.79
2019-02-14T11:34:51.958Z,33.10
2019-02-14T11:37:21.587Z,32.89
2019-02-14T11:39:51.223Z,32.09
2019-02-14T11:42:21.885Z,32.74
2019-02-14T11:44:52.139Z,31.81
2019-02-14T11:47:21.808Z,32.13
2019-02-14T11:49:51.403Z,31.33
2019-02-14T11:52:20.993Z,31.36
2019-02-14T11:54:50.652Z,31.31
2019-02-14T11:57:20.251Z,30.87
2019-02-14T11:59:49.836Z,30.59
2019-02-14T12:02:19.498Z,29.44
2019-02-14T12:04:49.082Z,28.14
2019-02-14T12:07:18.692Z,29.18
2019-02-14T12:09:48.339Z,29.70
2019-02-14T12:12:17.928Z,29.18
2019-02-14T12:14:47.513Z,29.13
2019-02-14T12:17:17.158Z,29.40
2019-02-14T12:19:48.769Z,30.44
2019-02-14T12:22:18.063Z,30.41
2019-02-14T12:24:47.737Z,29.73
2019-02-14T12:27:17.690Z,29.41
2019-02-14T12:29:47.291Z,30.15
2019-02-14T12:32:16.951Z,28.88
2019-02-14T12:34:46.552Z,29.06
2019-02-14T12:37:16.239Z,28.96
2019-02-14T12:39:45.911Z,30.78
2019-02-14T12:42:15.496Z,29.86
2019-02-14T12:44:45.098Z,30.19
2019-02-14T12:47:14.733Z,31.39
2019-02-14T12:49:44.346Z,31.21
2019-02-14T12:52:13.951Z,31.87
2019-02-14T12:54:43.599Z,32.49
2019-02-14T12:57:13.178Z,32.38
2019-02-14T12:59:42.786Z,33.08
2019-02-14T13:02:12.473Z,32.57
2019-02-14T13:04:42.090Z,32.35
2019-02-14T13:07:11.776Z,32.24
2019-02-14T13:09:41.439Z,31.85
2019-02-14T13:12:11.010Z,32.59
2019-02-14T13:14:40.621Z,32.96
2019-02-14T13:17:10.270Z,33.13
2019-02-14T13:19:39.864Z,33.00
2019-02-14T13:22:09.460Z,33.07
2019-02-14T13:24:39.109Z,32.98
2019-02-14T13:27:08.752Z,32.76
2019-02-14T13:29:38.350Z,33.12
2019-02-14T13:32:08.007Z,33.33
2019-02-14T13:34:37.603Z,32.89
2019-02-14T13:37:07.281Z,33.00
2019-02-14T13:39:36.932Z,33.33
2019-02-14T13:42:06.605Z,33.55
2019-02-14T13:44:36.223Z,33.57
2019-02-14T13:47:05.852Z,33.34
2019-02-14T13:49:35.547Z,33.43
2019-02-14T13:52:05.119Z,34.05
2019-02-14T13:54:34.802Z,33.78
2019-02-14T13:57:04.530Z,34.02
2019-02-14T13:59:34.144Z,33.55
2019-02-14T14:02:03.798Z,34.24
2019-02-14T14:04:33.422Z,34.71
2019-02-14T14:07:03.052Z,35.46
2019-02-14T14:09:38.429Z,35.64
2019-02-14T14:12:04.063Z,35.98
2019-02-14T14:14:33.633Z,37.87
2019-02-14T14:17:05.549Z,38.05
2019-02-14T14:19:35.210Z,38.53
2019-02-14T14:22:04.841Z,39.04
2019-02-14T14:24:34.544Z,38.74
2019-02-14T14:27:04.158Z,38.51
2019-02-14T14:29:33.785Z,38.70
2019-02-14T14:32:03.435Z,39.05
2019-02-14T14:34:33.054Z,39.56
2019-02-14T14:37:02.671Z,40.55
2019-02-14T14:39:32.348Z,41.02
2019-02-14T14:44:50.830Z,40.39
2019-02-14T14:47:22.493Z,40.41
2019-02-14T14:49:52.087Z,40.21
2019-02-14T14:52:21.775Z,40.96
2019-02-14T14:54:51.387Z,41.51
2019-02-14T14:57:20.999Z,41.66
2019-02-14T14:59:50.683Z,41.17
2019-02-14T15:02:20.332Z,41.77
2019-02-14T15:04:49.982Z,41.26
2019-02-14T15:07:19.672Z,41.77
2019-02-14T15:09:57.230Z,41.76
2019-02-14T15:12:20.674Z,41.19
2019-02-14T15:14:50.343Z,41.73
2019-02-14T15:17:19.937Z,41.17
2019-02-14T15:19:49.571Z,41.67
2019-02-14T15:22:19.217Z,41.48
2019-02-14T15:24:48.833Z,41.74
2019-02-14T15:27:18.442Z,41.58
2019-02-14T15:29:48.101Z,41.75
2019-02-14T15:32:17.749Z,42.97
2019-02-14T15:34:47.362Z,43.01
2019-02-14T15:37:17.955Z,42.87
2019-02-14T15:39:48.665Z,43.63
2019-02-14T15:42:18.298Z,43.83
2019-02-14T15:44:47.968Z,43.53
2019-02-14T15:47:17.603Z,44.51
2019-02-14T15:49:49.249Z,44.44
2019-02-14T15:52:19.062Z,44.78
2019-02-14T15:54:48.677Z,44.87
2019-02-14T15:57:20.360Z,45.53
2019-02-14T15:59:50.133Z,45.72
2019-02-14T16:02:19.726Z,45.79
2019-02-14T16:04:50.752Z,44.90
2019-02-14T16:07:21.105Z,45.70
2019-02-14T16:09:50.732Z,46.41
2019-02-14T16:12:21.907Z,46.47
2019-02-14T16:14:52.104Z,46.91
2019-02-14T16:17:21.722Z,46.84
2019-02-14T16:19:51.352Z,48.10
2019-02-14T16:22:29.674Z,47.99
2019-02-14T16:24:52.423Z,48.49
2019-02-14T16:27:22.526Z,49.20
2019-02-14T16:29:53.878Z,49.00
2019-02-14T16:32:23.502Z,48.42
2019-02-14T16:34:53.117Z,48.10
2019-02-14T16:37:22.770Z,49.12
2019-02-14T16:39:54.265Z,48.92
2019-02-14T16:42:23.733Z,48.90
2019-02-14T16:44:53.427Z,49.69
2019-02-14T16:47:23.049Z,46.82
2019-02-14T16:49:52.705Z,47.77
2019-02-14T16:52:22.357Z,47.92
2019-02-14T16:54:51.987Z,46.79
2019-02-14T16:57:21.611Z,47.05
2019-02-14T16:59:51.266Z,46.77
2019-02-14T17:02:20.936Z,46.74
2019-02-14T17:04:50.566Z,46.89
2019-02-14T17:07:20.235Z,46.78
2019-02-14T17:09:49.874Z,46.52
2019-02-14T17:12:19.710Z,45.04
2019-02-14T17:14:49.376Z,44.94
2019-02-14T17:17:27.536Z,44.78
2019-02-14T17:19:50.334Z,44.49
2019-02-14T17:22:27.128Z,43.77
2019-02-14T17:24:56.748Z,44.03
2019-02-14T17:27:26.395Z,44.69
2019-02-14T17:29:56.025Z,44.67
2019-02-14T17:32:25.636Z,44.35
2019-02-14T17:34:55.234Z,44.14
2019-02-14T17:37:24.902Z,44.85
2019-02-14T17:39:54.507Z,44.22
2019-02-14T17:42:24.140Z,44.62
2019-02-14T17:44:53.848Z,44.82
2019-02-14T17:47:23.473Z,44.60
2019-02-14T17:49:53.064Z,44.81
2019-02-14T17:52:22.755Z,45.55
2019-02-14T17:54:52.361Z,45.88
2019-02-14T17:57:21.973Z,46.69
2019-02-14T17:59:51.640Z,46.69
2019-02-14T18:08:04.512Z,49.39
2019-02-14T18:10:34.142Z,49.99
2019-02-14T18:13:03.740Z,49.92
2019-02-14T18:15:33.373Z,50.29
2019-02-14T18:18:03.026Z,50.46
2019-02-14T18:20:32.691Z,51.71
2019-02-14T18:23:02.322Z,53.39
2019-02-14T18:25:31.983Z,51.52
2019-02-14T18:28:01.570Z,53.46
2019-02-14T18:30:31.180Z,53.34
2019-02-14T18:33:00.841Z,54.92
2019-02-14T18:35:30.493Z,55.60
2019-02-14T18:38:00.098Z,57.42
2019-02-14T18:40:29.757Z,57.33
2019-02-14T18:42:59.388Z,57.75
2019-02-14T18:45:29.010Z,58.44
2019-02-14T18:47:58.634Z,59.12
2019-02-14T18:50:28.275Z,59.42
2019-02-14T18:52:57.903Z,59.65
2019-02-14T18:55:27.571Z,58.43
2019-02-14T18:57:57.198Z,60.33
2019-02-14T19:00:26.800Z,60.80
2019-02-14T19:02:56.462Z,60.42
2019-02-14T19:05:26.158Z,60.52
2019-02-14T19:07:55.803Z,60.03
2019-02-14T19:10:25.430Z,61.12
2019-02-14T19:12:55.017Z,62.75
2019-02-14T19:15:24.672Z,62.44
2019-02-14T19:17:54.372Z,63.32
2019-02-14T19:20:24.024Z,64.93
2019-02-14T19:22:53.668Z,64.55
2019-02-14T19:25:23.349Z,64.55
2019-02-14T19:28:30.279Z,63.78
2019-02-14T19:34:33.163Z,62.89
2019-02-14T19:37:02.835Z,65.01
2019-02-14T19:39:32.461Z,64.91
2019-02-14T19:42:02.089Z,63.92
2019-02-14T19:44:31.774Z,65.18
2019-02-14T19:47:01.385Z,65.57
2019-02-14T19:49:30.988Z,66.12
2019-02-14T19:52:00.689Z,67.16
2019-02-14T19:54:30.416Z,65.48
2019-02-14T19:57:00.150Z,67.19
2019-02-14T19:59:29.816Z,66.58
2019-02-14T20:01:59.441Z,67.02
2019-02-14T20:04:29.029Z,70.41
2019-02-14T20:06:58.720Z,69.13
2019-02-14T20:09:28.311Z,68.93
2019-02-14T20:11:58.050Z,69.90
2019-02-14T20:14:27.725Z,70.83
2019-02-14T20:16:57.379Z,70.61
2019-02-14T20:19:26.994Z,70.32
2019-02-14T20:21:56.686Z,71.05
2019-02-14T20:24:26.476Z,70.83
2019-02-14T20:26:56.098Z,70.95
2019-02-14T20:29:25.754Z,70.79
2019-02-14T20:31:55.401Z,68.64
2019-02-14T20:34:25.265Z,69.22
2019-02-14T20:36:54.937Z,68.71
2019-02-14T20:39:24.518Z,69.22
2019-02-14T20:41:54.125Z,69.52
2019-02-14T20:44:23.786Z,69.01
2019-02-14T20:46:53.404Z,69.88
2019-02-14T20:49:23.134Z,68.82
2019-02-14T20:51:52.817Z,71.22
2019-02-14T20:54:22.416Z,72.25
2019-02-14T20:56:52.136Z,72.14
2019-02-14T20:59:21.774Z,71.02
2019-02-14T21:01:51.386Z,68.48
2019-02-14T21:04:22.085Z,66.94
2019-02-14T21:06:52.768Z,67.61
2019-02-14T21:09:22.376Z,66.37
2019-02-14T21:11:54.694Z,68.11
2019-02-14T21:14:23.361Z,67.65
2019-02-14T21:16:53.008Z,71.36
2019-02-14T21:19:22.654Z,77.27
2019-02-14T21:24:28.881Z,83.77
2019-02-14T21:26:58.508Z,79.18
2019-02-14T21:29:28.120Z,92.60
2019-02-14T21:31:57.794Z,97.28
2019-02-14T21:34:27.444Z,93.66
2019-02-14T21:36:57.092Z,81.67
2019-02-14T21:39:26.835Z,80.81
2019-02-14T21:42:17.438Z,86.19
2019-02-14T21:44:27.803Z,99.85
2019-02-14T21:46:57.485Z,100.00
2019-02-14T21:49:27.106Z,100.00
2019-02-14T21:51:56.760Z,100.00
2019-02-14T21:54:26.520Z,100.00
2019-02-14T21:56:56.186Z,100.00
2019-02-14T21:59:25.806Z,100.00
2019-02-14T22:01:55.467Z,100.00
2019-02-14T22:04:25.097Z,100.00
2019-02-14T22:06:54.662Z,100.00
2019-02-14T22:09:24.348Z,100.00
2019-02-14T22:11:53.972Z,100.00
2019-02-14T22:14:23.604Z,100.00
2019-02-14T22:16:53.251Z,100.00
2019-02-14T22:19:22.841Z,100.00
2019-02-14T22:21:52.461Z,100.00
2019-02-14T22:24:22.153Z,100.00
2019-02-14T22:26:51.722Z,100.00
2019-02-14T22:29:21.335Z,100.00
2019-02-14T22:31:50.998Z,100.00
2019-02-14T22:34:20.639Z,100.00
2019-02-14T22:36:50.232Z,100.00
2019-02-14T22:39:19.930Z,100.00
2019-02-14T22:41:49.553Z,100.00
2019-02-14T22:44:19.185Z,100.00
2019-02-14T22:46:48.821Z,100.00
2019-02-14T22:49:18.427Z,100.00
2019-02-14T22:51:48.036Z,100.00
2019-02-14T22:54:17.699Z,100.00
2019-02-14T22:56:47.482Z,100.00
2019-02-14T22:59:17.119Z,100.00
2019-02-14T23:02:25.880Z,100.00
2019-02-14T23:04:55.920Z,100.00
2019-02-14T23:07:25.562Z,100.00
2019-02-14T23:10:15.939Z,100.00
2019-02-14T23:12:45.629Z,100.00
2019-02-14T23:18:04.034Z,100.00
2019-02-14T23:20:33.632Z,100.00
2019-02-14T23:23:04.033Z,100.00
2019-02-14T23:25:33.942Z,100.00
2019-02-14T23:28:03.552Z,100.00
2019-02-14T23:30:33.129Z,100.00
2019-02-14T23:33:03.273Z,100.00
2019-02-14T23:35:32.921Z,100.00
2019-02-14T23:38:02.530Z,100.00
2019-02-14T23:40:32.174Z,100.00
2019-02-14T23:43:04.755Z,100.00
2019-02-14T23:45:33.196Z,100.00
2019-02-14T23:48:02.871Z,100.00
2019-02-14T23:50:32.589Z,100.00
2019-02-14T23:53:02.199Z,100.00
2019-02-14T23:55:31.884Z,100.00
2019-02-14T23:58:01.470Z,100.00
